Aeroporto :
LOGIN :

Iscrizione | Disclaimer

   EN    FR    IT 

 










Sommario :    VFR   VFR Marginale   IFR   IFR Intensivo   IFR Molto Intensivo
Visibilità : 
Base nubi : 
>= 8 km
>= 3000ft
5 / 8 km
1000 / 3000 ft
1500m / 5 km
500 / 1000 ft
800 / 1500m
200 / 500 ft
< 800m
< 200 ft
Simboli :   Temporali  Nebbia  Neve Forte  Precipitazioni Forti  Vento > 20 kt
SIGMETs :   Varie  Temporali  Ghiacco  Turbolenza  Onda orograficha  Ceneri Vulcaniche






- Altitudine del aeroporto : 19 ft
- Codice IATA : VAA


EFVA - Vaasa

ULTIMO METAR :
  • 061720Z AUTO 25006KT 210V280 4000 -SHRA OVC002 02/02 Q0983 REUP RESHUP

METARs OBSOLETI :
  • 061650Z AUTO 24003KT 220V280 1000 R16/1400U BCFG VV002 02/02 Q0983
  • 061620Z AUTO 24004KT 210V270 1300 R16/1600N BCFG VV002 03/02 Q0983
  • 061550Z AUTO 24004KT 0800 R16/0900U FG VV002 03/02 Q0982
  • 061520Z AUTO 19005KT 0750 R16/0900N FG VV002 03/02 Q0982
  • 061450Z AUTO 16002KT 0750 R16/1200D FG VV003 03/02 Q0982

TAF AMD TAF EFVA
Valido dal 06 a 15 ore il 07 a 15 ore UTC


061458Z 0615/0715 VRB02KT 0500 FG VV002
TEMPO 0615/0619 2000 BR BKN001
BECMG 0619/0621 9999 NSW FEW020
BECMG 0701/0703 0500 FZFG VV001
TEMPO 0703/0715 3000 BR BKN005



MetMap, La meteo Aeronautica in un colpo d'occhio ! - Copyright ORBIFLY Dicembre 2007 - Disclaimer

ORBIFLY MET'MAP TEAM :

Programmazione e sviluppo : Alexandra Zaïnal
Concezione : Baudouin d'Aumeries
Aiuto per la programmazione : Marc-Olivier Méhu
Supporto tecnico e logistico : Manuel Goepfert
Aiuto per la traduzione : Arnaldo La Scala

Contatto : metmap@orbifly.com




FONTI E CREDITI :

   NOAA